Irving South's Hourly Summary for Tuesday, April 18, 2017
Hour Temp
(f)
RH
(%)
Solar Rad.
(MJ/m2)
Rainfall
(in)
Wind
(mph)
4/18/2017 12:00 AM 63 85 0 0 0.06
4/18/2017 1:00 AM 63 87 0 0 0.44
4/18/2017 2:00 AM 63 89 0 0 0.1
4/18/2017 3:00 AM 62 90 0 0 0
4/18/2017 4:00 AM 61 92 0 0 0.01
4/18/2017 5:00 AM 62 92 0 0 0
4/18/2017 6:00 AM 62 92 0 0 0.04
4/18/2017 7:00 AM 62 93 0 0 0
4/18/2017 8:00 AM 62 93 0.08 0 0
4/18/2017 9:00 AM 64 88 0.58 0 0.11
4/18/2017 10:00 AM 67 74 1.21 0 0.61
4/18/2017 11:00 AM 71 61 2.19 0 0.9
4/18/2017 12:00 PM 75 55 2.77 0 2.06
4/18/2017 1:00 PM 77 51 2.74 0 2.4
4/18/2017 2:00 PM 76 49 2.36 0 2.94
4/18/2017 3:00 PM 77 47 2.27 0 3.34
4/18/2017 4:00 PM 78 46 1.95 0 2.16
4/18/2017 5:00 PM 80 45 2.22 0 2.16
4/18/2017 6:00 PM 80 42 0.74 0 1.74
4/18/2017 7:00 PM 79 45 0.79 0 1.38
4/18/2017 8:00 PM 75 51 0.19 0 1.52
4/18/2017 9:00 PM 71 64 0 0 0.8
4/18/2017 10:00 PM 68 71 0 0 0.8
4/18/2017 11:00 PM 67 74 0 0 0.34
Data Summary 69 69 20.09 0.00 1.00